createdAt,value
2018-07-06T00:02:03.175Z,99.90
2018-07-06T00:04:52.504Z,99.90
2018-07-06T00:07:39.824Z,99.90
2018-07-06T00:10:25.510Z,99.90
2018-07-06T00:13:11.385Z,99.90
2018-07-06T00:18:37.950Z,99.90
2018-07-06T00:21:25.184Z,99.90
2018-07-06T00:24:12.508Z,99.90
2018-07-06T00:26:58.383Z,99.90
2018-07-06T00:29:44.333Z,99.90
2018-07-06T00:32:32.622Z,99.90
2018-07-06T00:35:18.313Z,99.90
2018-07-06T00:38:04.737Z,99.90
2018-07-06T00:40:55.181Z,99.90
2018-07-06T00:43:42.561Z,99.90
2018-07-06T00:46:28.381Z,99.90
2018-07-06T00:51:53.646Z,99.90
2018-07-06T00:54:39.267Z,99.90
2018-07-06T00:57:25.116Z,99.90
2018-07-06T01:00:10.840Z,99.90
2018-07-06T01:02:56.526Z,99.90
2018-07-06T01:08:23.136Z,99.90
2018-07-06T01:11:09.311Z,99.90
2018-07-06T01:13:54.977Z,99.90
2018-07-06T01:16:41.710Z,99.90
2018-07-06T01:19:27.507Z,99.90
2018-07-06T01:22:13.374Z,99.90
2018-07-06T01:25:00.228Z,99.90
2018-07-06T01:27:46.045Z,99.90
2018-07-06T01:30:31.735Z,99.90
2018-07-06T01:33:17.575Z,99.90
2018-07-06T01:36:03.429Z,99.90
2018-07-06T01:38:49.260Z,99.90
2018-07-06T01:41:35.848Z,99.90
2018-07-06T01:44:22.617Z,99.90
2018-07-06T01:47:09.428Z,99.90
2018-07-06T01:49:55.298Z,99.90
2018-07-06T01:52:40.919Z,99.90
2018-07-06T01:55:26.804Z,99.90
2018-07-06T01:58:12.454Z,99.90
2018-07-06T02:00:59.227Z,99.90
2018-07-06T02:03:45.017Z,99.90
2018-07-06T02:06:30.816Z,99.90
2018-07-06T02:11:57.255Z,99.90
2018-07-06T02:14:42.930Z,99.90
2018-07-06T02:17:28.719Z,99.90
2018-07-06T02:20:14.425Z,99.90
2018-07-06T02:23:00.184Z,99.90
2018-07-06T02:25:45.926Z,99.90
2018-07-06T02:28:31.495Z,99.90
2018-07-06T02:31:17.236Z,99.90
2018-07-06T02:34:02.975Z,99.90
2018-07-06T02:36:48.754Z,99.90
2018-07-06T02:39:34.500Z,99.90
2018-07-06T02:44:59.999Z,99.90
2018-07-06T02:47:45.860Z,99.90
2018-07-06T02:50:31.590Z,99.90
2018-07-06T02:55:58.017Z,99.90
2018-07-06T02:58:43.692Z,99.90
2018-07-06T03:01:29.483Z,99.90
2018-07-06T03:07:15.549Z,99.90
2018-07-06T03:10:01.395Z,99.90
2018-07-06T03:12:48.132Z,99.90
2018-07-06T03:15:33.888Z,99.90
2018-07-06T03:18:19.719Z,99.90
2018-07-06T03:21:05.440Z,99.90
2018-07-06T03:23:51.111Z,99.90
2018-07-06T03:26:36.999Z,99.90
2018-07-06T03:29:22.764Z,99.90
2018-07-06T03:32:08.576Z,99.90
2018-07-06T03:34:54.339Z,99.90
2018-07-06T03:37:40.177Z,99.90
2018-07-06T03:40:26.025Z,99.90
2018-07-06T03:43:11.865Z,99.90
2018-07-06T03:45:57.439Z,99.90
2018-07-06T03:51:22.811Z,99.90
2018-07-06T03:54:08.608Z,99.90
2018-07-06T03:57:01.408Z,99.90
2018-07-06T04:02:26.980Z,99.90
2018-07-06T04:05:12.897Z,99.90
2018-07-06T04:07:59.472Z,99.90
2018-07-06T04:10:45.293Z,99.90
2018-07-06T04:13:31.104Z,99.90
2018-07-06T04:16:17.944Z,99.90
2018-07-06T04:19:07.889Z,99.90
2018-07-06T04:24:33.346Z,99.90
2018-07-06T04:27:19.197Z,99.90
2018-07-06T04:32:44.621Z,99.90
2018-07-06T04:38:09.856Z,99.90
2018-07-06T04:40:56.676Z,99.90
2018-07-06T04:43:42.405Z,99.90
2018-07-06T04:46:28.117Z,99.90
2018-07-06T04:49:13.913Z,99.90
2018-07-06T04:51:59.777Z,99.90
2018-07-06T04:54:45.575Z,99.90
2018-07-06T04:57:32.169Z,99.90
2018-07-06T05:00:18.916Z,99.90
2018-07-06T05:03:05.724Z,99.90
2018-07-06T05:05:51.453Z,99.90
2018-07-06T05:08:37.157Z,99.90
2018-07-06T05:11:23.029Z,99.90
2018-07-06T05:14:08.828Z,99.90
2018-07-06T05:19:34.603Z,99.90
2018-07-06T05:22:20.342Z,99.90
2018-07-06T05:25:06.062Z,99.90
2018-07-06T05:27:51.777Z,99.90
2018-07-06T05:30:38.299Z,99.90
2018-07-06T05:33:24.217Z,99.90
2018-07-06T05:41:30.344Z,99.90
2018-07-06T05:44:15.933Z,99.90
2018-07-06T05:47:01.686Z,99.90
2018-07-06T05:49:47.491Z,99.90
2018-07-06T05:52:33.404Z,99.90
2018-07-06T05:55:19.165Z,99.90
2018-07-06T05:58:05.845Z,99.90
2018-07-06T06:00:51.697Z,99.90
2018-07-06T06:03:38.407Z,99.90
2018-07-06T06:06:24.041Z,99.90
2018-07-06T06:08:57.368Z,99.90
2018-07-06T06:11:32.196Z,99.90
2018-07-06T06:14:06.995Z,99.90
2018-07-06T06:16:42.812Z,99.90
2018-07-06T06:21:53.041Z,99.90
2018-07-06T06:24:27.801Z,99.90
2018-07-06T06:27:02.541Z,99.90
2018-07-06T06:29:37.836Z,99.90
2018-07-06T06:32:12.728Z,99.90
2018-07-06T06:34:48.637Z,99.90
2018-07-06T06:37:23.459Z,99.90
2018-07-06T06:39:58.391Z,99.90
2018-07-06T06:42:33.322Z,99.90
2018-07-06T06:45:08.099Z,99.90
2018-07-06T06:47:43.972Z,99.90
2018-07-06T06:50:18.775Z,99.90
2018-07-06T06:52:53.544Z,99.20
2018-07-06T06:55:28.420Z,98.10
2018-07-06T07:00:39.629Z,96.90
2018-07-06T07:03:14.412Z,95.40
2018-07-06T07:05:49.379Z,95.60
2018-07-06T07:08:24.233Z,93.90
2018-07-06T07:10:59.105Z,93.00
2018-07-06T07:13:33.951Z,91.20
2018-07-06T07:16:08.924Z,87.00
2018-07-06T07:18:43.801Z,85.10
2018-07-06T07:23:53.046Z,77.30
2018-07-06T07:29:02.220Z,77.30
2018-07-06T07:31:37.010Z,80.00
2018-07-06T07:34:13.786Z,80.70
2018-07-06T07:36:48.609Z,82.40
2018-07-06T07:39:23.594Z,81.50
2018-07-06T07:41:58.492Z,83.40
2018-07-06T07:44:33.432Z,81.20
2018-07-06T07:47:08.265Z,79.60
2018-07-06T07:49:43.123Z,78.30
2018-07-06T07:52:28.899Z,78.00
2018-07-06T07:55:03.775Z,74.50
2018-07-06T07:57:39.762Z,70.70
2018-07-06T08:00:14.609Z,68.10
2018-07-06T08:02:50.409Z,64.00
2018-07-06T08:05:25.343Z,62.60
2018-07-06T08:08:00.210Z,62.90
2018-07-06T08:10:43.291Z,64.60
2018-07-06T08:13:21.120Z,65.10
2018-07-06T08:15:55.926Z,65.90
2018-07-06T08:21:06.013Z,61.30
2018-07-06T08:23:41.827Z,60.50
2018-07-06T08:26:16.584Z,61.10
2018-07-06T08:28:51.371Z,63.50
2018-07-06T08:31:26.135Z,63.60
2018-07-06T08:37:54.568Z,65.50
2018-07-06T08:40:30.377Z,62.90
2018-07-06T08:45:40.491Z,60.00
2018-07-06T08:48:15.606Z,58.40
2018-07-06T08:50:50.364Z,58.30
2018-07-06T08:53:25.118Z,58.00
2018-07-06T08:55:59.817Z,58.40
2018-07-06T08:58:35.625Z,58.50
2018-07-06T09:01:10.405Z,56.60
2018-07-06T09:03:46.182Z,55.90
2018-07-06T09:06:20.879Z,53.90
2018-07-06T09:08:55.715Z,54.40
2018-07-06T09:11:30.504Z,54.60
2018-07-06T09:14:05.228Z,56.10
2018-07-06T09:16:40.043Z,57.00
2018-07-06T09:19:14.812Z,57.80
2018-07-06T09:21:50.707Z,56.20
2018-07-06T09:29:42.626Z,55.40
2018-07-06T09:32:17.392Z,55.40
2018-07-06T09:40:00.828Z,53.00
2018-07-06T09:42:43.836Z,52.30
2018-07-06T09:45:18.563Z,50.20
2018-07-06T09:47:53.476Z,50.30
2018-07-06T09:50:28.276Z,50.50
2018-07-06T09:53:04.097Z,49.30
2018-07-06T09:58:16.778Z,49.70
2018-07-06T10:00:56.679Z,47.80
2018-07-06T10:03:32.576Z,47.70
2018-07-06T10:06:14.184Z,50.60
2018-07-06T10:08:53.098Z,49.40
2018-07-06T10:11:27.843Z,50.00
2018-07-06T10:14:02.732Z,48.70
2018-07-06T10:16:37.499Z,51.10
2018-07-06T10:19:12.293Z,48.50
2018-07-06T10:21:47.114Z,47.00
2018-07-06T10:24:23.075Z,48.30
2018-07-06T10:26:57.955Z,49.50
2018-07-06T10:29:47.934Z,49.50
2018-07-06T10:32:25.899Z,49.40
2018-07-06T10:35:01.803Z,48.40
2018-07-06T10:37:37.597Z,49.70
2018-07-06T10:40:12.328Z,49.80
2018-07-06T10:42:47.340Z,50.70
2018-07-06T10:45:22.126Z,49.50
2018-07-06T10:47:57.263Z,49.90
2018-07-06T10:50:32.083Z,50.10
2018-07-06T10:53:06.956Z,50.80
2018-07-06T10:55:41.669Z,50.10
2018-07-06T10:58:17.490Z,50.20
2018-07-06T11:00:52.241Z,48.80
2018-07-06T11:06:02.233Z,48.50
2018-07-06T11:08:36.985Z,47.70
2018-07-06T11:11:11.792Z,48.60
2018-07-06T11:13:46.557Z,47.00
2018-07-06T11:16:21.316Z,47.30
2018-07-06T11:21:31.317Z,46.70
2018-07-06T11:24:06.240Z,47.10
2018-07-06T11:26:47.387Z,48.80
2018-07-06T11:29:22.228Z,49.40
2018-07-06T11:31:56.957Z,50.60
2018-07-06T11:37:06.019Z,51.00
2018-07-06T11:39:40.857Z,49.70
2018-07-06T11:42:15.623Z,50.40
2018-07-06T11:44:51.401Z,50.30
2018-07-06T11:47:26.127Z,50.70
2018-07-06T11:50:00.867Z,50.10
2018-07-06T11:52:35.626Z,50.80
2018-07-06T11:55:10.435Z,52.00
2018-07-06T11:57:45.181Z,50.20
2018-07-06T12:00:19.956Z,48.90
2018-07-06T12:05:28.997Z,48.50
2018-07-06T12:08:04.813Z,48.30
2018-07-06T12:10:39.539Z,49.10
2018-07-06T12:13:14.394Z,48.10
2018-07-06T12:18:23.777Z,48.40
2018-07-06T12:20:58.491Z,49.90
2018-07-06T12:23:33.309Z,48.40
2018-07-06T12:26:08.079Z,48.10
2018-07-06T12:28:43.864Z,47.60
2018-07-06T12:31:18.589Z,48.80
2018-07-06T12:33:53.324Z,50.00
2018-07-06T12:36:28.105Z,50.00
2018-07-06T12:39:03.139Z,50.40
2018-07-06T12:41:37.874Z,50.60
2018-07-06T12:44:12.871Z,49.80
2018-07-06T12:46:47.643Z,48.20
2018-07-06T12:49:22.411Z,47.80
2018-07-06T12:51:57.141Z,48.30
2018-07-06T12:54:32.973Z,48.70
2018-07-06T12:57:08.724Z,49.30
2018-07-06T12:59:43.518Z,49.10
2018-07-06T13:02:18.240Z,49.00
2018-07-06T13:04:53.012Z,48.60
2018-07-06T13:07:27.746Z,49.30
2018-07-06T13:10:02.580Z,50.10
2018-07-06T13:12:37.279Z,49.10
2018-07-06T13:15:12.076Z,49.60
2018-07-06T13:17:46.806Z,49.90
2018-07-06T13:20:22.584Z,50.70
2018-07-06T13:22:57.304Z,50.40
2018-07-06T13:25:32.152Z,49.50
2018-07-06T13:28:07.186Z,50.10
2018-07-06T13:33:16.239Z,51.30
2018-07-06T13:35:52.012Z,51.00
2018-07-06T13:38:26.737Z,49.90
2018-07-06T13:41:01.489Z,48.80
2018-07-06T13:43:37.944Z,50.20
2018-07-06T13:46:13.711Z,50.40
2018-07-06T13:48:48.423Z,50.20
2018-07-06T13:51:23.530Z,51.30
2018-07-06T13:53:59.265Z,51.70
2018-07-06T13:56:35.077Z,52.20
2018-07-06T13:59:10.916Z,52.50
2018-07-06T14:01:46.849Z,52.40
2018-07-06T14:04:21.641Z,51.10
2018-07-06T14:06:57.457Z,51.20
2018-07-06T14:09:32.533Z,51.00
2018-07-06T14:14:42.880Z,52.10
2018-07-06T14:17:17.665Z,51.90
2018-07-06T14:19:52.400Z,51.30
2018-07-06T14:22:28.187Z,52.60
2018-07-06T14:25:02.889Z,52.10
2018-07-06T14:27:37.667Z,50.50
2018-07-06T14:30:12.446Z,50.90
2018-07-06T14:32:47.232Z,51.60
2018-07-06T14:35:22.989Z,51.80
2018-07-06T14:37:57.769Z,51.60
2018-07-06T14:40:32.496Z,51.20
2018-07-06T14:43:08.356Z,50.90
2018-07-06T14:45:43.082Z,52.00
2018-07-06T14:50:52.139Z,51.80
2018-07-06T14:53:27.948Z,52.50
2018-07-06T14:56:02.679Z,52.80
2018-07-06T14:58:37.417Z,54.20
2018-07-06T15:01:12.159Z,52.90
2018-07-06T15:03:47.061Z,50.50
2018-07-06T15:06:21.781Z,53.00
2018-07-06T15:08:56.564Z,53.50
2018-07-06T15:11:31.472Z,51.20
2018-07-06T15:16:40.544Z,51.90
2018-07-06T15:19:16.355Z,52.90
2018-07-06T15:21:51.070Z,53.60
2018-07-06T15:24:25.840Z,52.30
2018-07-06T15:27:00.598Z,53.20
2018-07-06T15:29:35.397Z,52.20
2018-07-06T15:32:11.167Z,51.20
2018-07-06T15:34:47.099Z,51.60
2018-07-06T15:37:22.912Z,52.90
2018-07-06T15:39:58.763Z,53.70
2018-07-06T15:42:33.520Z,53.20
2018-07-06T15:47:43.540Z,54.50
2018-07-06T15:50:18.421Z,54.40
2018-07-06T15:52:53.366Z,53.30
2018-07-06T15:55:28.120Z,54.30
2018-07-06T15:58:02.847Z,54.70
2018-07-06T16:00:37.613Z,55.10
2018-07-06T16:05:46.659Z,53.60
2018-07-06T16:08:21.393Z,53.60
2018-07-06T16:10:56.195Z,52.20
2018-07-06T16:13:30.964Z,53.10
2018-07-06T16:16:06.060Z,52.80
2018-07-06T16:21:16.456Z,53.90
2018-07-06T16:26:26.482Z,54.70
2018-07-06T16:29:01.233Z,54.70
2018-07-06T16:31:35.979Z,54.70
2018-07-06T16:34:11.915Z,52.60
2018-07-06T16:39:21.902Z,54.70
2018-07-06T16:41:56.976Z,55.20
2018-07-06T16:44:31.719Z,55.20
2018-07-06T16:47:06.841Z,55.60
2018-07-06T16:49:41.607Z,56.00
2018-07-06T16:54:50.668Z,55.40
2018-07-06T16:57:25.415Z,56.10
2018-07-06T17:00:00.220Z,55.70
2018-07-06T17:02:34.974Z,56.30
2018-07-06T17:05:09.810Z,55.90
2018-07-06T17:07:44.582Z,54.70
2018-07-06T17:12:53.623Z,55.40
2018-07-06T17:15:29.404Z,56.20
2018-07-06T17:18:04.180Z,56.80
2018-07-06T17:20:38.905Z,55.90
2018-07-06T17:23:13.636Z,56.50
2018-07-06T17:25:49.412Z,57.50
2018-07-06T17:28:24.168Z,58.30
2018-07-06T17:30:59.093Z,58.20
2018-07-06T17:33:33.925Z,58.50
2018-07-06T17:36:08.836Z,57.30
2018-07-06T17:38:43.574Z,57.50
2018-07-06T17:41:18.314Z,57.70
2018-07-06T17:43:53.203Z,58.20
2018-07-06T17:49:02.172Z,57.20
2018-07-06T17:51:36.897Z,58.10
2018-07-06T17:54:11.671Z,58.40
2018-07-06T17:56:46.391Z,58.80
2018-07-06T17:59:22.175Z,59.10
2018-07-06T18:01:56.997Z,59.50
2018-07-06T18:04:31.752Z,58.60
2018-07-06T18:07:06.604Z,59.00
2018-07-06T18:09:41.385Z,59.40
2018-07-06T18:14:51.417Z,59.60
2018-07-06T18:17:26.263Z,60.40
2018-07-06T18:22:36.941Z,60.20
2018-07-06T18:25:11.672Z,60.80
2018-07-06T18:27:46.482Z,61.40
2018-07-06T18:30:21.197Z,62.00
2018-07-06T18:32:56.324Z,62.00
2018-07-06T18:35:31.196Z,62.20
2018-07-06T18:40:40.216Z,62.70
2018-07-06T18:43:14.975Z,63.30
2018-07-06T18:45:49.816Z,63.90
2018-07-06T18:48:25.672Z,63.90
2018-07-06T18:51:00.421Z,64.00
2018-07-06T18:53:35.256Z,64.50
2018-07-06T18:56:10.033Z,65.10
2018-07-06T18:58:45.807Z,66.20
2018-07-06T19:01:21.759Z,66.90
2018-07-06T19:03:57.524Z,67.90
2018-07-06T19:06:32.282Z,68.70
2018-07-06T19:09:07.699Z,69.60
2018-07-06T19:11:42.462Z,70.20
2018-07-06T19:14:18.256Z,70.60
2018-07-06T19:16:53.056Z,70.60
2018-07-06T19:19:27.761Z,71.10
2018-07-06T19:22:02.545Z,72.00
2018-07-06T19:24:37.231Z,73.30
2018-07-06T19:27:13.040Z,73.80
2018-07-06T19:29:48.840Z,74.30
2018-07-06T19:34:58.066Z,75.40
2018-07-06T19:37:32.805Z,75.80
2018-07-06T19:40:07.911Z,76.20
2018-07-06T19:42:43.719Z,77.40
2018-07-06T19:45:18.517Z,78.30
2018-07-06T19:47:53.459Z,78.80
2018-07-06T19:50:29.209Z,79.20
2018-07-06T19:53:05.040Z,80.10
2018-07-06T19:55:39.763Z,81.00
2018-07-06T19:58:14.572Z,81.80
2018-07-06T20:00:49.304Z,82.80
2018-07-06T20:03:24.064Z,83.20
2018-07-06T20:08:35.111Z,85.40
2018-07-06T20:11:10.208Z,86.80
2018-07-06T20:13:44.923Z,88.70
2018-07-06T20:24:03.493Z,90.90
2018-07-06T20:26:38.260Z,90.60
2018-07-06T20:29:14.053Z,90.60
2018-07-06T20:31:48.800Z,90.80
2018-07-06T20:34:23.492Z,91.20
2018-07-06T20:36:58.291Z,91.60
2018-07-06T20:39:33.025Z,92.00
2018-07-06T20:42:07.800Z,92.30
2018-07-06T20:49:52.096Z,93.30
2018-07-06T20:57:39.821Z,93.90
2018-07-06T21:00:14.592Z,94.20
2018-07-06T21:02:49.478Z,94.20
2018-07-06T21:05:24.229Z,94.20
2018-07-06T21:07:58.992Z,94.40
2018-07-06T21:10:33.962Z,94.80
2018-07-06T21:13:08.694Z,95.30
2018-07-06T21:15:43.466Z,95.40
2018-07-06T21:18:24.871Z,95.70
2018-07-06T21:20:59.714Z,96.00
2018-07-06T21:26:07.596Z,96.50
2018-07-06T21:28:42.764Z,96.90
2018-07-06T21:34:25.505Z,97.90
2018-07-06T21:40:15.561Z,98.50
2018-07-06T21:43:25.811Z,98.50
2018-07-06T21:49:07.372Z,99.00
2018-07-06T21:51:42.221Z,99.40
2018-07-06T21:54:18.036Z,99.50
2018-07-06T21:59:26.484Z,99.70
2018-07-06T22:02:00.728Z,99.90
2018-07-06T22:04:35.464Z,99.90
2018-07-06T22:07:09.735Z,99.90
2018-07-06T22:09:45.319Z,99.90
2018-07-06T22:12:19.552Z,99.90
2018-07-06T22:14:53.744Z,99.90
2018-07-06T22:17:29.016Z,99.90
2018-07-06T22:20:03.776Z,99.90
2018-07-06T22:22:38.078Z,99.90
2018-07-06T22:25:12.380Z,99.90
2018-07-06T22:27:47.583Z,99.90
2018-07-06T22:30:22.126Z,99.90
2018-07-06T22:32:56.890Z,99.90
2018-07-06T22:35:31.122Z,99.90
2018-07-06T22:38:05.369Z,99.90
2018-07-06T22:40:39.539Z,99.90
2018-07-06T22:43:24.176Z,99.90
2018-07-06T22:46:01.155Z,99.90
2018-07-06T22:48:38.877Z,99.90
2018-07-06T22:51:13.103Z,99.90
2018-07-06T22:53:49.793Z,99.90
2018-07-06T22:56:23.981Z,99.90
2018-07-06T22:58:59.858Z,99.90
2018-07-06T23:01:36.801Z,99.90
2018-07-06T23:04:11.115Z,99.90
2018-07-06T23:06:48.717Z,99.90
2018-07-06T23:09:23.777Z,99.90
2018-07-06T23:11:58.715Z,99.90
2018-07-06T23:19:57.057Z,99.90
2018-07-06T23:22:47.221Z,99.90
2018-07-06T23:25:22.117Z,99.90
2018-07-06T23:28:03.520Z,99.90
2018-07-06T23:30:43.410Z,99.90
2018-07-06T23:33:19.817Z,99.90
2018-07-06T23:35:58.409Z,99.90
2018-07-06T23:38:36.810Z,99.90
2018-07-06T23:41:14.554Z,99.90
2018-07-06T23:43:48.758Z,99.90
2018-07-06T23:46:22.978Z,99.90
2018-07-06T23:48:57.240Z,99.90
2018-07-06T23:51:31.435Z,99.90
2018-07-06T23:54:05.948Z,99.90
2018-07-06T23:56:40.152Z,99.90
2018-07-06T23:59:14.340Z,99.90
